Glasgow, United Kingdom
Current Conditions -  °F | °C
As of 2:50 AM on Thursday 27 Nov 2014 (Local Time) from EGPF Reporting Station
Haze Haze  
Wind Chill: 43°   Ceiling: 500
Heat Index: 43°   Visibility: 2.1mi
Dew Point: 43°   Wind: 3mph
Humidity: 100%   Direction: 80°E
Pressure: 29.71"   Gusts: NA
Location:  55.87°N, 4.26°W
Report Text: EGPF 270250Z AUTO 08003KT 3500 BR BKN005 OVC018 06/06 Q1006 RERA
Loading
Personal Weather Stations






























Interactive Weather Map New forecast layout! Learn more

10-Day Weather Forecast

Advertisements
Track Severe Weather on mobile